sensor_id;sensor_type;location;lat;lon;timestamp;temperature;humidity
13569;DHT22;6856;51.460;7.158;2023-03-12T00:02:13;5.30;54.80
13569;DHT22;6856;51.460;7.158;2023-03-12T00:04:47;5.30;54.80
13569;DHT22;6856;51.460;7.158;2023-03-12T00:07:21;5.30;54.70
13569;DHT22;6856;51.460;7.158;2023-03-12T00:09:54;5.30;54.60
13569;DHT22;6856;51.460;7.158;2023-03-12T00:12:28;5.60;54.80
13569;DHT22;6856;51.460;7.158;2023-03-12T00:15:04;5.30;54.60
13569;DHT22;6856;51.460;7.158;2023-03-12T00:17:41;5.30;54.70
13569;DHT22;6856;51.460;7.158;2023-03-12T00:20:15;5.30;54.50
13569;DHT22;6856;51.460;7.158;2023-03-12T00:22:50;5.30;54.50
13569;DHT22;6856;51.460;7.158;2023-03-12T00:25:24;5.30;54.40
13569;DHT22;6856;51.460;7.158;2023-03-12T00:27:58;5.30;54.40
13569;DHT22;6856;51.460;7.158;2023-03-12T00:30:32;5.30;54.40
13569;DHT22;6856;51.460;7.158;2023-03-12T00:33:07;5.20;54.40
13569;DHT22;6856;51.460;7.158;2023-03-12T00:35:42;5.30;54.40
13569;DHT22;6856;51.460;7.158;2023-03-12T00:38:15;5.20;54.30
13569;DHT22;6856;51.460;7.158;2023-03-12T00:40:49;5.20;54.40
13569;DHT22;6856;51.460;7.158;2023-03-12T00:43:23;5.20;54.40
13569;DHT22;6856;51.460;7.158;2023-03-12T00:45:57;5.20;54.40
13569;DHT22;6856;51.460;7.158;2023-03-12T00:48:34;5.20;54.40
13569;DHT22;6856;51.460;7.158;2023-03-12T00:51:08;5.20;54.40
13569;DHT22;6856;51.460;7.158;2023-03-12T00:53:43;5.20;54.40
13569;DHT22;6856;51.460;7.158;2023-03-12T00:56:17;5.20;54.40
13569;DHT22;6856;51.460;7.158;2023-03-12T00:58:51;5.20;54.30
13569;DHT22;6856;51.460;7.158;2023-03-12T01:01:26;5.20;54.30
13569;DHT22;6856;51.460;7.158;2023-03-12T01:04:01;5.20;54.30
13569;DHT22;6856;51.460;7.158;2023-03-12T01:06:35;5.20;54.30
13569;DHT22;6856;51.460;7.158;2023-03-12T01:09:09;5.20;54.30
13569;DHT22;6856;51.460;7.158;2023-03-12T01:11:43;5.20;54.30
13569;DHT22;6856;51.460;7.158;2023-03-12T01:14:16;5.20;54.40
13569;DHT22;6856;51.460;7.158;2023-03-12T01:16:50;5.20;54.30
13569;DHT22;6856;51.460;7.158;2023-03-12T01:19:26;5.20;54.30
13569;DHT22;6856;51.460;7.158;2023-03-12T01:21:59;5.20;54.30
13569;DHT22;6856;51.460;7.158;2023-03-12T01:24:34;5.20;54.30
13569;DHT22;6856;51.460;7.158;2023-03-12T01:27:08;5.20;54.40
13569;DHT22;6856;51.460;7.158;2023-03-12T01:29:42;5.20;54.30
13569;DHT22;6856;51.460;7.158;2023-03-12T01:32:20;5.20;54.20
13569;DHT22;6856;51.460;7.158;2023-03-12T01:34:58;5.30;54.20
13569;DHT22;6856;51.460;7.158;2023-03-12T01:37:33;5.20;54.30
13569;DHT22;6856;51.460;7.158;2023-03-12T01:40:07;5.20;54.40
13569;DHT22;6856;51.460;7.158;2023-03-12T01:42:51;5.20;54.50
13569;DHT22;6856;51.460;7.158;2023-03-12T01:46:04;5.20;54.50
13569;DHT22;6856;51.460;7.158;2023-03-12T01:48:50;5.20;54.50
13569;DHT22;6856;51.460;7.158;2023-03-12T01:51:32;5.20;54.40
13569;DHT22;6856;51.460;7.158;2023-03-12T01:54:12;5.20;54.40
13569;DHT22;6856;51.460;7.158;2023-03-12T01:56:51;5.20;54.40
13569;DHT22;6856;51.460;7.158;2023-03-12T01:59:30;5.20;54.40
13569;DHT22;6856;51.460;7.158;2023-03-12T02:02:08;5.20;54.50
13569;DHT22;6856;51.460;7.158;2023-03-12T02:04:44;5.20;54.50
13569;DHT22;6856;51.460;7.158;2023-03-12T02:07:20;5.30;54.50
13569;DHT22;6856;51.460;7.158;2023-03-12T02:09:54;5.20;54.30
13569;DHT22;6856;51.460;7.158;2023-03-12T02:12:28;5.30;54.30
13569;DHT22;6856;51.460;7.158;2023-03-12T02:15:02;5.30;54.20
13569;DHT22;6856;51.460;7.158;2023-03-12T02:17:37;5.30;54.20
13569;DHT22;6856;51.460;7.158;2023-03-12T02:20:15;5.30;54.20
13569;DHT22;6856;51.460;7.158;2023-03-12T02:23:02;5.30;54.30
13569;DHT22;6856;51.460;7.158;2023-03-12T02:25:41;5.30;54.30
13569;DHT22;6856;51.460;7.158;2023-03-12T02:28:20;5.30;54.30
13569;DHT22;6856;51.460;7.158;2023-03-12T02:31:00;5.30;54.30
13569;DHT22;6856;51.460;7.158;2023-03-12T02:33:38;5.30;54.30
13569;DHT22;6856;51.460;7.158;2023-03-12T02:36:12;5.30;54.30
13569;DHT22;6856;51.460;7.158;2023-03-12T02:38:47;5.40;54.30
13569;DHT22;6856;51.460;7.158;2023-03-12T02:41:26;5.40;54.30
13569;DHT22;6856;51.460;7.158;2023-03-12T02:44:04;5.40;54.30
13569;DHT22;6856;51.460;7.158;2023-03-12T02:46:42;5.60;54.30
13569;DHT22;6856;51.460;7.158;2023-03-12T02:49:18;5.40;54.20
13569;DHT22;6856;51.460;7.158;2023-03-12T02:51:54;5.50;54.10
13569;DHT22;6856;51.460;7.158;2023-03-12T02:54:28;5.40;54.00
13569;DHT22;6856;51.460;7.158;2023-03-12T02:57:04;5.40;54.10
13569;DHT22;6856;51.460;7.158;2023-03-12T02:59:37;5.40;54.00
13569;DHT22;6856;51.460;7.158;2023-03-12T03:02:11;5.50;54.10
13569;DHT22;6856;51.460;7.158;2023-03-12T03:04:45;5.40;54.00
13569;DHT22;6856;51.460;7.158;2023-03-12T03:07:18;5.50;53.90
13569;DHT22;6856;51.460;7.158;2023-03-12T03:09:53;5.50;53.90
13569;DHT22;6856;51.460;7.158;2023-03-12T03:12:28;5.50;53.80
13569;DHT22;6856;51.460;7.158;2023-03-12T03:15:02;5.50;53.70
13569;DHT22;6856;51.460;7.158;2023-03-12T03:17:37;5.50;53.80
13569;DHT22;6856;51.460;7.158;2023-03-12T03:20:11;5.50;53.70
13569;DHT22;6856;51.460;7.158;2023-03-12T03:22:45;5.50;53.70
13569;DHT22;6856;51.460;7.158;2023-03-12T03:25:19;5.50;53.60
13569;DHT22;6856;51.460;7.158;2023-03-12T03:27:56;5.50;53.60
13569;DHT22;6856;51.460;7.158;2023-03-12T03:30:30;5.50;53.50
13569;DHT22;6856;51.460;7.158;2023-03-12T03:33:04;5.50;53.60
13569;DHT22;6856;51.460;7.158;2023-03-12T03:35:38;5.50;53.50
13569;DHT22;6856;51.460;7.158;2023-03-12T03:38:12;5.50;53.50
13569;DHT22;6856;51.460;7.158;2023-03-12T03:40:46;5.50;53.40
13569;DHT22;6856;51.460;7.158;2023-03-12T03:43:21;5.50;53.30
13569;DHT22;6856;51.460;7.158;2023-03-12T03:45:56;5.50;53.40
13569;DHT22;6856;51.460;7.158;2023-03-12T03:48:32;5.50;53.50
13569;DHT22;6856;51.460;7.158;2023-03-12T03:51:07;5.60;53.70
13569;DHT22;6856;51.460;7.158;2023-03-12T03:53:42;5.60;53.70
13569;DHT22;6856;51.460;7.158;2023-03-12T03:56:17;5.60;53.70
13569;DHT22;6856;51.460;7.158;2023-03-12T03:58:53;5.60;53.60
13569;DHT22;6856;51.460;7.158;2023-03-12T04:01:27;5.60;53.60
13569;DHT22;6856;51.460;7.158;2023-03-12T04:04:02;5.60;53.60
13569;DHT22;6856;51.460;7.158;2023-03-12T04:06:36;5.60;53.60
13569;DHT22;6856;51.460;7.158;2023-03-12T04:09:10;5.60;53.50
13569;DHT22;6856;51.460;7.158;2023-03-12T04:11:44;5.60;53.50
13569;DHT22;6856;51.460;7.158;2023-03-12T04:14:20;5.60;53.40
13569;DHT22;6856;51.460;7.158;2023-03-12T04:16:54;5.60;53.50
13569;DHT22;6856;51.460;7.158;2023-03-12T04:19:27;5.60;53.30
13569;DHT22;6856;51.460;7.158;2023-03-12T04:22:01;5.70;53.30
13569;DHT22;6856;51.460;7.158;2023-03-12T04:24:35;5.60;54.00
13569;DHT22;6856;51.460;7.158;2023-03-12T04:27:09;5.70;53.40
13569;DHT22;6856;51.460;7.158;2023-03-12T04:29:44;5.70;53.30
13569;DHT22;6856;51.460;7.158;2023-03-12T04:32:18;5.70;53.30
13569;DHT22;6856;51.460;7.158;2023-03-12T04:34:52;5.70;54.00
13569;DHT22;6856;51.460;7.158;2023-03-12T04:37:26;5.70;53.50
13569;DHT22;6856;51.460;7.158;2023-03-12T04:40:00;5.80;53.50
13569;DHT22;6856;51.460;7.158;2023-03-12T04:42:39;6.00;53.60
13569;DHT22;6856;51.460;7.158;2023-03-12T04:45:14;5.80;53.40
13569;DHT22;6856;51.460;7.158;2023-03-12T04:47:48;5.80;53.40
13569;DHT22;6856;51.460;7.158;2023-03-12T04:50:22;5.80;53.50
13569;DHT22;6856;51.460;7.158;2023-03-12T04:52:56;5.80;53.60
13569;DHT22;6856;51.460;7.158;2023-03-12T04:55:30;5.80;53.60
13569;DHT22;6856;51.460;7.158;2023-03-12T04:58:04;5.80;53.50
13569;DHT22;6856;51.460;7.158;2023-03-12T05:00:40;6.00;53.60
13569;DHT22;6856;51.460;7.158;2023-03-12T05:03:14;5.80;53.50
13569;DHT22;6856;51.460;7.158;2023-03-12T05:05:49;5.90;53.60
13569;DHT22;6856;51.460;7.158;2023-03-12T05:08:23;5.90;53.60
13569;DHT22;6856;51.460;7.158;2023-03-12T05:10:57;5.80;53.50
13569;DHT22;6856;51.460;7.158;2023-03-12T05:13:31;5.90;53.50
13569;DHT22;6856;51.460;7.158;2023-03-12T05:16:07;6.20;53.60
13569;DHT22;6856;51.460;7.158;2023-03-12T05:18:41;6.00;53.60
13569;DHT22;6856;51.460;7.158;2023-03-12T05:21:18;5.90;53.50
13569;DHT22;6856;51.460;7.158;2023-03-12T05:23:52;5.90;53.50
13569;DHT22;6856;51.460;7.158;2023-03-12T05:26:29;5.90;53.40
13569;DHT22;6856;51.460;7.158;2023-03-12T05:29:05;5.90;53.50
13569;DHT22;6856;51.460;7.158;2023-03-12T05:31:42;5.90;53.40
13569;DHT22;6856;51.460;7.158;2023-03-12T05:34:16;6.20;53.60
13569;DHT22;6856;51.460;7.158;2023-03-12T05:36:51;6.00;53.50
13569;DHT22;6856;51.460;7.158;2023-03-12T05:39:25;5.90;53.40
13569;DHT22;6856;51.460;7.158;2023-03-12T05:41:59;6.10;53.60
13569;DHT22;6856;51.460;7.158;2023-03-12T05:44:33;6.00;53.60
13569;DHT22;6856;51.460;7.158;2023-03-12T05:47:11;6.00;53.60
13569;DHT22;6856;51.460;7.158;2023-03-12T05:49:45;6.00;53.50
13569;DHT22;6856;51.460;7.158;2023-03-12T05:52:19;6.30;53.60
13569;DHT22;6856;51.460;7.158;2023-03-12T05:54:53;6.00;53.50
13569;DHT22;6856;51.460;7.158;2023-03-12T05:57:27;6.00;53.40
13569;DHT22;6856;51.460;7.158;2023-03-12T06:00:02;6.20;53.60
13569;DHT22;6856;51.460;7.158;2023-03-12T06:02:39;6.10;53.60
13569;DHT22;6856;51.460;7.158;2023-03-12T06:05:13;6.10;53.50
13569;DHT22;6856;51.460;7.158;2023-03-12T06:07:47;6.00;53.50
13569;DHT22;6856;51.460;7.158;2023-03-12T06:10:20;6.00;54.20
13569;DHT22;6856;51.460;7.158;2023-03-12T06:12:55;6.10;53.80
13569;DHT22;6856;51.460;7.158;2023-03-12T06:15:30;6.10;53.80
13569;DHT22;6856;51.460;7.158;2023-03-12T06:18:05;6.10;53.90
13569;DHT22;6856;51.460;7.158;2023-03-12T06:20:40;6.10;54.10
13569;DHT22;6856;51.460;7.158;2023-03-12T06:23:13;6.10;54.40
13569;DHT22;6856;51.460;7.158;2023-03-12T06:25:47;6.10;54.40
13569;DHT22;6856;51.460;7.158;2023-03-12T06:28:21;6.10;54.50
13569;DHT22;6856;51.460;7.158;2023-03-12T06:30:56;6.10;54.60
13569;DHT22;6856;51.460;7.158;2023-03-12T06:33:33;6.20;54.80
13569;DHT22;6856;51.460;7.158;2023-03-12T06:36:09;6.00;54.50
13569;DHT22;6856;51.460;7.158;2023-03-12T06:38:43;6.20;55.10
13569;DHT22;6856;51.460;7.158;2023-03-12T06:41:19;6.00;55.10
13569;DHT22;6856;51.460;7.158;2023-03-12T06:43:52;6.20;55.30
13569;DHT22;6856;51.460;7.158;2023-03-12T06:46:26;6.10;55.40
13569;DHT22;6856;51.460;7.158;2023-03-12T06:49:01;6.10;55.50
13569;DHT22;6856;51.460;7.158;2023-03-12T06:51:35;6.10;55.70
13569;DHT22;6856;51.460;7.158;2023-03-12T06:54:09;6.10;55.70
13569;DHT22;6856;51.460;7.158;2023-03-12T06:56:44;6.10;55.80
13569;DHT22;6856;51.460;7.158;2023-03-12T06:59:18;6.10;55.90
13569;DHT22;6856;51.460;7.158;2023-03-12T07:01:52;6.10;56.00
13569;DHT22;6856;51.460;7.158;2023-03-12T07:04:28;6.10;56.00
13569;DHT22;6856;51.460;7.158;2023-03-12T07:07:03;6.10;56.00
13569;DHT22;6856;51.460;7.158;2023-03-12T07:09:40;6.20;56.20
13569;DHT22;6856;51.460;7.158;2023-03-12T07:12:13;6.20;56.40
13569;DHT22;6856;51.460;7.158;2023-03-12T07:14:47;6.20;56.40
13569;DHT22;6856;51.460;7.158;2023-03-12T07:17:20;6.20;56.60
13569;DHT22;6856;51.460;7.158;2023-03-12T07:19:56;6.20;56.70
13569;DHT22;6856;51.460;7.158;2023-03-12T07:22:30;6.10;56.90
13569;DHT22;6856;51.460;7.158;2023-03-12T07:25:05;6.20;57.00
13569;DHT22;6856;51.460;7.158;2023-03-12T07:27:39;6.20;57.20
13569;DHT22;6856;51.460;7.158;2023-03-12T07:30:13;6.20;57.20
13569;DHT22;6856;51.460;7.158;2023-03-12T07:32:47;6.20;57.50
13569;DHT22;6856;51.460;7.158;2023-03-12T07:35:23;6.20;57.60
13569;DHT22;6856;51.460;7.158;2023-03-12T07:37:57;6.20;57.80
13569;DHT22;6856;51.460;7.158;2023-03-12T07:40:31;6.20;58.00
13569;DHT22;6856;51.460;7.158;2023-03-12T07:43:06;6.30;58.30
13569;DHT22;6856;51.460;7.158;2023-03-12T07:45:43;6.20;58.30
13569;DHT22;6856;51.460;7.158;2023-03-12T07:48:18;6.30;58.60
13569;DHT22;6856;51.460;7.158;2023-03-12T07:50:53;6.30;58.70
13569;DHT22;6856;51.460;7.158;2023-03-12T07:53:27;6.30;58.80
13569;DHT22;6856;51.460;7.158;2023-03-12T07:56:01;6.30;58.90
13569;DHT22;6856;51.460;7.158;2023-03-12T07:58:35;6.50;59.20
13569;DHT22;6856;51.460;7.158;2023-03-12T08:01:10;6.30;59.20
13569;DHT22;6856;51.460;7.158;2023-03-12T08:03:44;6.30;59.30
13569;DHT22;6856;51.460;7.158;2023-03-12T08:06:20;6.40;59.40
13569;DHT22;6856;51.460;7.158;2023-03-12T08:08:53;6.40;59.60
13569;DHT22;6856;51.460;7.158;2023-03-12T08:11:28;6.40;59.70
13569;DHT22;6856;51.460;7.158;2023-03-12T08:14:04;6.40;59.70
13569;DHT22;6856;51.460;7.158;2023-03-12T08:16:39;6.40;59.80
13569;DHT22;6856;51.460;7.158;2023-03-12T08:19:13;6.40;60.10
13569;DHT22;6856;51.460;7.158;2023-03-12T08:21:49;6.50;60.20
13569;DHT22;6856;51.460;7.158;2023-03-12T08:24:24;6.50;60.30
13569;DHT22;6856;51.460;7.158;2023-03-12T08:26:57;6.50;60.30
13569;DHT22;6856;51.460;7.158;2023-03-12T08:29:31;6.50;60.40
13569;DHT22;6856;51.460;7.158;2023-03-12T08:32:07;6.60;60.50
13569;DHT22;6856;51.460;7.158;2023-03-12T08:34:42;6.60;60.60
13569;DHT22;6856;51.460;7.158;2023-03-12T08:37:18;6.60;60.60
13569;DHT22;6856;51.460;7.158;2023-03-12T08:39:51;6.60;60.50
13569;DHT22;6856;51.460;7.158;2023-03-12T08:42:25;6.90;61.00
13569;DHT22;6856;51.460;7.158;2023-03-12T08:44:59;6.60;60.90
13569;DHT22;6856;51.460;7.158;2023-03-12T08:47:32;6.70;60.90
13569;DHT22;6856;51.460;7.158;2023-03-12T08:50:07;6.70;61.10
13569;DHT22;6856;51.460;7.158;2023-03-12T08:52:44;6.70;61.20
13569;DHT22;6856;51.460;7.158;2023-03-12T08:55:18;6.70;61.30
13569;DHT22;6856;51.460;7.158;2023-03-12T08:57:52;6.80;62.20
13569;DHT22;6856;51.460;7.158;2023-03-12T09:00:28;6.80;61.70
13569;DHT22;6856;51.460;7.158;2023-03-12T09:03:02;6.90;61.90
13569;DHT22;6856;51.460;7.158;2023-03-12T09:05:36;6.90;62.10
13569;DHT22;6856;51.460;7.158;2023-03-12T09:08:11;6.90;62.20
13569;DHT22;6856;51.460;7.158;2023-03-12T09:10:47;7.00;62.30
13569;DHT22;6856;51.460;7.158;2023-03-12T09:13:22;7.00;62.40
13569;DHT22;6856;51.460;7.158;2023-03-12T09:16:02;7.00;62.40
13569;DHT22;6856;51.460;7.158;2023-03-12T09:18:37;7.10;62.70
13569;DHT22;6856;51.460;7.158;2023-03-12T09:21:11;7.10;62.70
13569;DHT22;6856;51.460;7.158;2023-03-12T09:23:46;7.20;62.80
13569;DHT22;6856;51.460;7.158;2023-03-12T09:26:21;7.30;62.90
13569;DHT22;6856;51.460;7.158;2023-03-12T09:28:56;7.30;62.90
13569;DHT22;6856;51.460;7.158;2023-03-12T09:31:30;7.30;62.90
13569;DHT22;6856;51.460;7.158;2023-03-12T09:34:05;7.40;63.00
13569;DHT22;6856;51.460;7.158;2023-03-12T09:36:39;7.40;63.10
13569;DHT22;6856;51.460;7.158;2023-03-12T09:39:14;7.40;63.10
13569;DHT22;6856;51.460;7.158;2023-03-12T09:41:50;7.50;63.50
13569;DHT22;6856;51.460;7.158;2023-03-12T09:44:31;7.50;63.60
13569;DHT22;6856;51.460;7.158;2023-03-12T09:47:13;7.50;63.90
13569;DHT22;6856;51.460;7.158;2023-03-12T09:49:58;7.50;64.00
13569;DHT22;6856;51.460;7.158;2023-03-12T09:52:41;7.60;64.20
13569;DHT22;6856;51.460;7.158;2023-03-12T09:55:23;7.60;64.30
13569;DHT22;6856;51.460;7.158;2023-03-12T09:57:57;7.60;64.40
13569;DHT22;6856;51.460;7.158;2023-03-12T10:00:34;7.60;64.60
13569;DHT22;6856;51.460;7.158;2023-03-12T10:03:26;7.60;64.80
13569;DHT22;6856;51.460;7.158;2023-03-12T10:06:15;7.70;65.50
13569;DHT22;6856;51.460;7.158;2023-03-12T10:09:02;7.70;65.30
13569;DHT22;6856;51.460;7.158;2023-03-12T10:11:53;7.70;65.50
13569;DHT22;6856;51.460;7.158;2023-03-12T10:14:39;7.80;65.60
13569;DHT22;6856;51.460;7.158;2023-03-12T10:17:31;7.70;65.80
13569;DHT22;6856;51.460;7.158;2023-03-12T10:20:40;7.80;66.10
13569;DHT22;6856;51.460;7.158;2023-03-12T10:23:35;7.90;66.60
13569;DHT22;6856;51.460;7.158;2023-03-12T10:26:22;7.90;66.70
13569;DHT22;6856;51.460;7.158;2023-03-12T10:29:02;7.90;66.80
13569;DHT22;6856;51.460;7.158;2023-03-12T10:31:49;8.00;67.20
13569;DHT22;6856;51.460;7.158;2023-03-12T10:34:31;8.00;67.10
13569;DHT22;6856;51.460;7.158;2023-03-12T10:37:15;8.10;67.30
13569;DHT22;6856;51.460;7.158;2023-03-12T10:39:54;8.10;68.30
13569;DHT22;6856;51.460;7.158;2023-03-12T10:42:31;8.20;67.80
13569;DHT22;6856;51.460;7.158;2023-03-12T10:45:18;8.20;67.70
13569;DHT22;6856;51.460;7.158;2023-03-12T10:48:01;8.30;68.20
13569;DHT22;6856;51.460;7.158;2023-03-12T10:50:39;8.30;68.00
13569;DHT22;6856;51.460;7.158;2023-03-12T10:53:20;8.60;68.10
13569;DHT22;6856;51.460;7.158;2023-03-12T10:56:03;8.40;68.10
13569;DHT22;6856;51.460;7.158;2023-03-12T10:58:41;8.50;68.10
13569;DHT22;6856;51.460;7.158;2023-03-12T11:01:20;8.50;68.00
13569;DHT22;6856;51.460;7.158;2023-03-12T11:04:08;8.50;67.70
13569;DHT22;6856;51.460;7.158;2023-03-12T11:07:17;8.60;68.40
13569;DHT22;6856;51.460;7.158;2023-03-12T11:10:13;8.80;68.80
13569;DHT22;6856;51.460;7.158;2023-03-12T11:13:03;8.70;68.60
13569;DHT22;6856;51.460;7.158;2023-03-12T11:15:55;8.70;68.40
13569;DHT22;6856;51.460;7.158;2023-03-12T11:18:33;8.70;68.20
13569;DHT22;6856;51.460;7.158;2023-03-12T11:21:16;8.80;68.40
13569;DHT22;6856;51.460;7.158;2023-03-12T11:24:06;9.10;68.90
13569;DHT22;6856;51.460;7.158;2023-03-12T11:26:47;8.80;68.90
13569;DHT22;6856;51.460;7.158;2023-03-12T11:29:26;9.10;68.80
13569;DHT22;6856;51.460;7.158;2023-03-12T11:32:08;8.90;68.70
13569;DHT22;6856;51.460;7.158;2023-03-12T11:34:49;8.90;68.70
13569;DHT22;6856;51.460;7.158;2023-03-12T11:37:35;8.90;68.70
13569;DHT22;6856;51.460;7.158;2023-03-12T11:40:20;9.00;69.20
13569;DHT22;6856;51.460;7.158;2023-03-12T11:43:29;9.00;69.00
13569;DHT22;6856;51.460;7.158;2023-03-12T11:46:33;9.00;69.50
13569;DHT22;6856;51.460;7.158;2023-03-12T11:49:24;9.10;69.60
13569;DHT22;6856;51.460;7.158;2023-03-12T11:52:14;9.10;69.50
13569;DHT22;6856;51.460;7.158;2023-03-12T11:55:12;9.40;69.70
13569;DHT22;6856;51.460;7.158;2023-03-12T11:58:06;9.20;69.90
13569;DHT22;6856;51.460;7.158;2023-03-12T12:00:58;9.30;70.10
13569;DHT22;6856;51.460;7.158;2023-03-12T12:07:07;9.50;70.50
13569;DHT22;6856;51.460;7.158;2023-03-12T12:09:54;9.50;70.30
13569;DHT22;6856;51.460;7.158;2023-03-12T12:12:44;9.50;70.20
13569;DHT22;6856;51.460;7.158;2023-03-12T12:15:33;9.60;70.60
13569;DHT22;6856;51.460;7.158;2023-03-12T12:18:34;9.70;70.70
13569;DHT22;6856;51.460;7.158;2023-03-12T12:21:32;9.90;71.00
13569;DHT22;6856;51.460;7.158;2023-03-12T12:24:28;9.90;70.80
13569;DHT22;6856;51.460;7.158;2023-03-12T12:27:17;9.90;70.80
13569;DHT22;6856;51.460;7.158;2023-03-12T12:30:04;10.00;70.80
13569;DHT22;6856;51.460;7.158;2023-03-12T12:32:58;10.10;70.80
13569;DHT22;6856;51.460;7.158;2023-03-12T12:35:46;10.10;70.80
13569;DHT22;6856;51.460;7.158;2023-03-12T12:38:26;10.30;70.70
13569;DHT22;6856;51.460;7.158;2023-03-12T12:41:09;10.20;71.50
13569;DHT22;6856;51.460;7.158;2023-03-12T12:43:48;10.30;70.90
13569;DHT22;6856;51.460;7.158;2023-03-12T12:46:25;10.30;71.00
13569;DHT22;6856;51.460;7.158;2023-03-12T12:49:08;10.40;71.00
13569;DHT22;6856;51.460;7.158;2023-03-12T12:51:48;10.40;71.00
13569;DHT22;6856;51.460;7.158;2023-03-12T12:54:29;10.50;70.90
13569;DHT22;6856;51.460;7.158;2023-03-12T12:57:12;10.80;71.00
13569;DHT22;6856;51.460;7.158;2023-03-12T13:00:02;10.60;70.80
13569;DHT22;6856;51.460;7.158;2023-03-12T13:02:52;10.60;71.00
13569;DHT22;6856;51.460;7.158;2023-03-12T13:05:40;10.70;70.90
13569;DHT22;6856;51.460;7.158;2023-03-12T13:08:33;10.80;71.20
13569;DHT22;6856;51.460;7.158;2023-03-12T13:11:39;10.80;71.10
13569;DHT22;6856;51.460;7.158;2023-03-12T13:14:34;10.80;71.10
13569;DHT22;6856;51.460;7.158;2023-03-12T13:17:28;10.90;71.40
13569;DHT22;6856;51.460;7.158;2023-03-12T13:20:13;11.00;71.60
13569;DHT22;6856;51.460;7.158;2023-03-12T13:22:59;11.00;71.70
13569;DHT22;6856;51.460;7.158;2023-03-12T13:25:48;11.10;71.70
13569;DHT22;6856;51.460;7.158;2023-03-12T13:28:35;11.20;71.80
13569;DHT22;6856;51.460;7.158;2023-03-12T13:31:34;11.20;71.60
13569;DHT22;6856;51.460;7.158;2023-03-12T13:34:31;11.30;71.90
13569;DHT22;6856;51.460;7.158;2023-03-12T13:43:50;11.60;71.90
13569;DHT22;6856;51.460;7.158;2023-03-12T13:46:39;11.70;71.60
13569;DHT22;6856;51.460;7.158;2023-03-12T13:49:16;11.80;71.70
13569;DHT22;6856;51.460;7.158;2023-03-12T13:51:58;11.90;71.50
13569;DHT22;6856;51.460;7.158;2023-03-12T13:54:38;12.00;71.30
13569;DHT22;6856;51.460;7.158;2023-03-12T13:57:30;12.10;71.40
13569;DHT22;6856;51.460;7.158;2023-03-12T14:00:15;12.10;71.30
13569;DHT22;6856;51.460;7.158;2023-03-12T14:02:56;12.20;71.00
13569;DHT22;6856;51.460;7.158;2023-03-12T14:05:47;12.20;70.80
13569;DHT22;6856;51.460;7.158;2023-03-12T14:08:37;12.30;70.90
13569;DHT22;6856;51.460;7.158;2023-03-12T14:11:34;12.60;70.90
13569;DHT22;6856;51.460;7.158;2023-03-12T14:14:49;12.40;70.80
13569;DHT22;6856;51.460;7.158;2023-03-12T14:17:37;12.50;71.10
13569;DHT22;6856;51.460;7.158;2023-03-12T14:20:17;12.50;70.60
13569;DHT22;6856;51.460;7.158;2023-03-12T14:22:58;12.60;70.40
13569;DHT22;6856;51.460;7.158;2023-03-12T14:25:38;12.60;70.30
13569;DHT22;6856;51.460;7.158;2023-03-12T14:28:18;12.70;70.30
13569;DHT22;6856;51.460;7.158;2023-03-12T14:30:58;12.70;70.20
13569;DHT22;6856;51.460;7.158;2023-03-12T14:33:39;12.80;70.20
13569;DHT22;6856;51.460;7.158;2023-03-12T14:36:26;12.90;70.10
13569;DHT22;6856;51.460;7.158;2023-03-12T14:39:12;12.90;69.90
13569;DHT22;6856;51.460;7.158;2023-03-12T14:41:59;13.00;69.90
13569;DHT22;6856;51.460;7.158;2023-03-12T14:44:37;13.10;69.70
13569;DHT22;6856;51.460;7.158;2023-03-12T14:47:16;13.00;69.60
13569;DHT22;6856;51.460;7.158;2023-03-12T14:49:54;13.00;69.50
13569;DHT22;6856;51.460;7.158;2023-03-12T14:52:31;13.00;70.00
13569;DHT22;6856;51.460;7.158;2023-03-12T14:55:13;13.10;69.20
13569;DHT22;6856;51.460;7.158;2023-03-12T14:58:02;13.10;69.20
13569;DHT22;6856;51.460;7.158;2023-03-12T15:00:37;13.10;69.20
13569;DHT22;6856;51.460;7.158;2023-03-12T15:03:13;13.10;68.90
13569;DHT22;6856;51.460;7.158;2023-03-12T15:05:49;13.30;69.00
13569;DHT22;6856;51.460;7.158;2023-03-12T15:08:27;13.10;68.80
13569;DHT22;6856;51.460;7.158;2023-03-12T15:11:00;13.10;68.80
13569;DHT22;6856;51.460;7.158;2023-03-12T15:13:37;13.20;68.70
13569;DHT22;6856;51.460;7.158;2023-03-12T15:16:12;13.30;68.90
13569;DHT22;6856;51.460;7.158;2023-03-12T15:18:46;13.20;68.70
13569;DHT22;6856;51.460;7.158;2023-03-12T15:21:21;13.20;68.60
13569;DHT22;6856;51.460;7.158;2023-03-12T15:23:57;13.30;68.60
13569;DHT22;6856;51.460;7.158;2023-03-12T15:26:31;13.30;68.20
13569;DHT22;6856;51.460;7.158;2023-03-12T15:29:20;13.30;68.00
13569;DHT22;6856;51.460;7.158;2023-03-12T15:32:01;13.30;67.70
13569;DHT22;6856;51.460;7.158;2023-03-12T15:34:46;13.40;68.30
13569;DHT22;6856;51.460;7.158;2023-03-12T15:37:23;13.40;67.40
13569;DHT22;6856;51.460;7.158;2023-03-12T15:40:15;13.40;67.40
13569;DHT22;6856;51.460;7.158;2023-03-12T15:42:53;13.40;67.30
13569;DHT22;6856;51.460;7.158;2023-03-12T15:45:36;13.50;67.20
13569;DHT22;6856;51.460;7.158;2023-03-12T15:48:18;13.50;66.90
13569;DHT22;6856;51.460;7.158;2023-03-12T15:50:56;13.50;66.80
13569;DHT22;6856;51.460;7.158;2023-03-12T15:53:31;13.50;66.50
13569;DHT22;6856;51.460;7.158;2023-03-12T15:56:21;13.50;66.30
13569;DHT22;6856;51.460;7.158;2023-03-12T15:59:17;13.50;66.20
13569;DHT22;6856;51.460;7.158;2023-03-12T16:01:55;13.60;66.20
13569;DHT22;6856;51.460;7.158;2023-03-12T16:04:28;13.50;65.90
13569;DHT22;6856;51.460;7.158;2023-03-12T16:07:09;13.60;65.80
13569;DHT22;6856;51.460;7.158;2023-03-12T16:09:44;13.60;65.70
13569;DHT22;6856;51.460;7.158;2023-03-12T16:12:20;13.60;65.50
13569;DHT22;6856;51.460;7.158;2023-03-12T16:14:54;13.60;65.40
13569;DHT22;6856;51.460;7.158;2023-03-12T16:17:28;13.60;65.30
13569;DHT22;6856;51.460;7.158;2023-03-12T16:20:02;13.60;65.10
13569;DHT22;6856;51.460;7.158;2023-03-12T16:22:37;13.60;65.00
13569;DHT22;6856;51.460;7.158;2023-03-12T16:25:11;13.60;64.80
13569;DHT22;6856;51.460;7.158;2023-03-12T16:27:48;13.60;64.60
13569;DHT22;6856;51.460;7.158;2023-03-12T16:30:27;13.60;64.50
13569;DHT22;6856;51.460;7.158;2023-03-12T16:33:04;13.70;64.40
13569;DHT22;6856;51.460;7.158;2023-03-12T16:35:40;13.70;64.30
13569;DHT22;6856;51.460;7.158;2023-03-12T16:38:14;13.70;64.20
13569;DHT22;6856;51.460;7.158;2023-03-12T16:40:49;13.70;63.90
13569;DHT22;6856;51.460;7.158;2023-03-12T16:43:26;13.70;63.70
13569;DHT22;6856;51.460;7.158;2023-03-12T16:46:02;13.70;63.60
13569;DHT22;6856;51.460;7.158;2023-03-12T16:48:40;13.70;63.30
13569;DHT22;6856;51.460;7.158;2023-03-12T16:51:14;13.70;63.20
13569;DHT22;6856;51.460;7.158;2023-03-12T16:53:50;13.70;63.00
13569;DHT22;6856;51.460;7.158;2023-03-12T16:56:43;13.70;62.80
13569;DHT22;6856;51.460;7.158;2023-03-12T16:59:25;13.70;62.50
13569;DHT22;6856;51.460;7.158;2023-03-12T17:02:07;13.70;62.20
13569;DHT22;6856;51.460;7.158;2023-03-12T17:04:47;13.70;62.30
13569;DHT22;6856;51.460;7.158;2023-03-12T17:07:22;13.70;61.90
13569;DHT22;6856;51.460;7.158;2023-03-12T17:09:55;13.70;61.90
13569;DHT22;6856;51.460;7.158;2023-03-12T17:12:32;13.70;62.50
13569;DHT22;6856;51.460;7.158;2023-03-12T17:15:12;13.70;61.70
13569;DHT22;6856;51.460;7.158;2023-03-12T17:17:49;13.70;61.40
13569;DHT22;6856;51.460;7.158;2023-03-12T17:20:23;13.70;62.20
13569;DHT22;6856;51.460;7.158;2023-03-12T17:22:57;13.70;61.40